Time;durP1;ratioP1;P1;durP2;ratioP2;P2;SDS_P1;SDS_P2;PMS_P1;PMS_P2;Temp;Humidity;BMP_temperature;BMP_pressure;BME280_temperature;BME280_humidity;BME280_pressure;Samples;Min_cycle;Max_cycle;Signal;HPM_P1;HPM_P2
2022/10/03 00:00:13;;;;;;;24.42;7.43;;;14.20;99.90;;;;;;5052131;28;20182;-48
2022/10/03 00:02:38;;;;;;;19.13;5.35;;;14.20;99.90;;;;;;5045901;28;20236;-50
2022/10/03 00:05:29;;;;;;;25.40;9.30;;;14.10;99.90;;;;;;5052311;28;20175;-52
2022/10/03 00:07:55;;;;;;;21.15;3.30;;;14.10;99.90;;;;;;5052568;28;20304;-51
2022/10/03 00:10:57;;;;;;;12.68;3.20;;;14.10;99.90;;;;;;5052753;28;20709;-62
2022/10/03 00:13:31;;;;;;;15.13;2.80;;;14.10;99.90;;;;;;5031315;28;20178;-48
2022/10/03 00:16:22;;;;;;;11.65;2.47;;;14.00;99.90;;;;;;5057253;28;20199;-50
2022/10/03 00:19:06;;;;;;;11.70;2.70;;;14.00;99.90;;;;;;5056455;28;20171;-52
2022/10/03 00:21:55;;;;;;;7.57;2.85;;;13.90;99.90;;;;;;5053813;28;20198;-52
2022/10/03 00:24:52;;;;;;;12.18;2.55;;;13.90;99.90;;;;;;5051139;28;20183;-50
2022/10/03 00:27:42;;;;;;;23.67;3.42;;;13.90;99.90;;;;;;4982392;28;20279;-55
2022/10/03 00:30:22;;;;;;;14.25;2.95;;;13.90;99.90;;;;;;5019646;28;20180;-50
2022/10/03 00:32:53;;;;;;;14.30;3.60;;;13.90;99.90;;;;;;5041581;28;20175;-61
2022/10/03 00:35:34;;;;;;;12.23;2.95;;;13.90;99.90;;;;;;5046588;28;20223;-55
2022/10/03 00:38:41;;;;;;;17.15;2.90;;;13.80;99.90;;;;;;5056970;28;20175;-53
2022/10/03 00:41:22;;;;;;;13.52;2.92;;;13.80;99.90;;;;;;5063225;28;20173;-54
2022/10/03 00:44:29;;;;;;;16.73;2.70;;;13.80;99.90;;;;;;5037376;28;20186;-58
2022/10/03 00:47:06;;;;;;;7.53;1.92;;;13.70;99.90;;;;;;5056746;28;20165;-50
2022/10/03 00:50:03;;;;;;;9.73;2.05;;;13.70;99.90;;;;;;5055907;28;20195;-50
2022/10/03 00:52:55;;;;;;;12.18;2.90;;;13.70;99.90;;;;;;5056394;28;20247;-51
2022/10/03 00:55:35;;;;;;;11.50;3.08;;;13.70;99.90;;;;;;5047996;28;20210;-52
2022/10/03 00:58:16;;;;;;;24.55;2.90;;;13.70;99.90;;;;;;5038304;28;20190;-50
2022/10/03 01:00:49;;;;;;;16.58;2.60;;;13.70;99.90;;;;;;5056280;28;20224;-48
2022/10/03 01:03:32;;;;;;;9.38;2.50;;;13.60;99.90;;;;;;5056661;28;20160;-50
2022/10/03 01:06:33;;;;;;;10.15;2.33;;;13.60;99.90;;;;;;5042638;28;20699;-54
2022/10/03 01:09:21;;;;;;;13.57;2.75;;;13.60;99.90;;;;;;5042298;28;20171;-54
2022/10/03 01:12:10;;;;;;;9.23;2.50;;;13.60;99.90;;;;;;5038161;28;20179;-51
2022/10/03 01:14:55;;;;;;;12.70;2.50;;;13.60;99.90;;;;;;5038242;28;20627;-54
2022/10/03 01:17:35;;;;;;;13.50;2.55;;;13.60;99.90;;;;;;5049935;28;20187;-50
2022/10/03 01:20:21;;;;;;;13.18;2.80;;;13.60;99.90;;;;;;5056002;28;20230;-51
2022/10/03 01:23:05;;;;;;;13.38;2.50;;;13.60;99.90;;;;;;5054834;28;20183;-47
2022/10/03 01:26:17;;;;;;;9.10;2.47;;;13.60;99.90;;;;;;5054889;28;20190;-50
2022/10/03 01:32:07;;;;;;;13.00;2.75;;;13.60;99.90;;;;;;5054332;28;20262;-50
2022/10/03 01:34:50;;;;;;;15.23;2.75;;;13.60;99.90;;;;;;5038058;28;20225;-54
2022/10/03 01:37:28;;;;;;;11.15;2.25;;;13.50;99.90;;;;;;5047563;28;20179;-53
2022/10/03 01:40:12;;;;;;;12.65;2.40;;;13.50;99.90;;;;;;5017591;28;20180;-53
2022/10/03 01:42:57;;;;;;;13.90;2.53;;;13.50;99.90;;;;;;5068119;28;20190;-54
2022/10/03 01:45:39;;;;;;;11.43;2.50;;;13.40;99.90;;;;;;5037901;28;20175;-52
2022/10/03 01:48:27;;;;;;;11.25;2.13;;;13.30;99.90;;;;;;5053776;28;20233;-49
2022/10/03 01:51:25;;;;;;;13.65;2.03;;;13.30;99.90;;;;;;5055293;28;20199;-54
2022/10/03 01:53:51;;;;;;;12.57;2.22;;;13.20;99.90;;;;;;4984831;28;20228;-49
2022/10/03 01:56:31;;;;;;;11.52;2.20;;;13.30;99.90;;;;;;5055105;28;20305;-54
2022/10/03 01:59:05;;;;;;;9.35;2.17;;;13.20;99.90;;;;;;5045510;28;20183;-52
2022/10/03 02:01:43;;;;;;;9.02;2.05;;;13.30;99.90;;;;;;5054113;28;20197;-48
2022/10/03 02:04:21;;;;;;;12.73;2.00;;;13.20;99.90;;;;;;5055078;28;20234;-52
2022/10/03 02:07:10;;;;;;;13.70;2.50;;;13.20;99.90;;;;;;5036460;28;20215;-58
2022/10/03 02:09:57;;;;;;;8.60;2.03;;;13.20;99.90;;;;;;5055390;28;20168;-60
2022/10/03 02:12:54;;;;;;;12.48;2.30;;;13.10;99.90;;;;;;5051209;28;20203;-55
2022/10/03 02:15:23;;;;;;;12.35;2.05;;;13.20;99.90;;;;;;5053026;28;20206;-54
2022/10/03 02:17:55;;;;;;;9.18;2.00;;;13.10;99.90;;;;;;5055355;28;20163;-53
2022/10/03 02:21:02;;;;;;;12.18;2.28;;;13.00;99.90;;;;;;5055324;28;20171;-51
2022/10/03 02:23:30;;;;;;;10.73;2.38;;;13.00;99.90;;;;;;5015520;28;20592;-51
2022/10/03 02:26:30;;;;;;;11.80;2.17;;;13.00;99.90;;;;;;5051964;28;20655;-54
2022/10/03 02:29:23;;;;;;;15.38;2.28;;;12.90;99.90;;;;;;5054892;28;20175;-52
2022/10/03 02:32:05;;;;;;;13.45;2.08;;;12.90;99.90;;;;;;5054663;28;20155;-54
2022/10/03 02:34:43;;;;;;;9.90;2.08;;;12.90;99.90;;;;;;5043404;28;20211;-56
2022/10/03 02:37:35;;;;;;;13.65;2.67;;;12.90;99.90;;;;;;5051585;28;20617;-55
2022/10/03 02:40:13;;;;;;;8.50;2.10;;;12.90;99.90;;;;;;5036832;28;20228;-53
2022/10/03 02:43:11;;;;;;;8.18;2.10;;;12.90;99.90;;;;;;5074438;28;20232;-54
2022/10/03 02:45:55;;;;;;;11.95;2.45;;;12.90;99.90;;;;;;5000999;28;20337;-51
2022/10/03 02:48:48;;;;;;;9.30;2.33;;;12.90;99.90;;;;;;5054480;28;20284;-52
2022/10/03 02:51:45;;;;;;;7.22;1.90;;;12.90;99.90;;;;;;5054424;28;20530;-52
2022/10/03 02:54:42;;;;;;;11.70;2.10;;;12.90;99.90;;;;;;5052527;28;20214;-55
2022/10/03 02:57:25;;;;;;;12.90;2.50;;;12.90;99.90;;;;;;5038786;28;20218;-53
2022/10/03 03:00:05;;;;;;;10.68;2.05;;;12.90;99.90;;;;;;5054540;28;20513;-55
2022/10/03 03:03:00;;;;;;;10.23;2.13;;;12.90;99.90;;;;;;5054408;28;20170;-55
2022/10/03 03:06:03;;;;;;;9.82;3.33;;;12.80;99.90;;;;;;5044823;28;20326;-54
2022/10/03 03:08:54;;;;;;;8.40;2.08;;;12.80;99.90;;;;;;5049684;28;20186;-53
2022/10/03 03:11:48;;;;;;;12.32;2.28;;;12.80;99.90;;;;;;5036533;28;20594;-50
2022/10/03 03:14:28;;;;;;;13.02;3.03;;;12.80;99.90;;;;;;5053506;28;20243;-56
2022/10/03 03:16:59;;;;;;;9.73;3.00;;;12.80;99.90;;;;;;5047714;28;20658;-52
2022/10/03 03:19:38;;;;;;;12.23;2.53;;;12.80;99.90;;;;;;5048566;28;20312;-53
2022/10/03 03:22:24;;;;;;;13.90;2.53;;;12.90;99.90;;;;;;5035829;28;20543;-49
2022/10/03 03:25:28;;;;;;;12.20;3.28;;;12.80;99.90;;;;;;5036411;28;20183;-53
2022/10/03 03:28:10;;;;;;;9.10;3.38;;;12.80;99.90;;;;;;5035764;28;20190;-50
2022/10/03 03:30:58;;;;;;;12.60;3.20;;;12.80;99.90;;;;;;5049388;28;20206;-52
2022/10/03 03:33:52;;;;;;;13.27;3.03;;;12.80;99.90;;;;;;5014020;28;20223;-50
2022/10/03 03:36:57;;;;;;;15.00;2.95;;;12.70;99.90;;;;;;5052933;28;20188;-49
2022/10/03 03:39:42;;;;;;;10.95;2.47;;;12.70;99.90;;;;;;5022677;28;20567;-53
2022/10/03 03:42:44;;;;;;;17.20;2.95;;;12.60;99.90;;;;;;5045302;28;20175;-51
2022/10/03 03:45:39;;;;;;;13.27;3.00;;;12.60;99.90;;;;;;5053210;28;20614;-52
2022/10/03 03:48:21;;;;;;;10.07;2.88;;;12.60;99.90;;;;;;5034073;28;20512;-51
2022/10/03 03:51:09;;;;;;;12.82;3.00;;;12.70;99.90;;;;;;5033658;28;20172;-51
2022/10/03 03:53:45;;;;;;;9.20;2.97;;;12.60;99.90;;;;;;5053581;28;20673;-52
2022/10/03 03:56:42;;;;;;;9.63;2.60;;;12.60;99.90;;;;;;5053357;28;20187;-51
2022/10/03 03:59:26;;;;;;;12.02;2.30;;;12.50;99.90;;;;;;5053077;28;20189;-51
2022/10/03 04:02:03;;;;;;;10.57;2.83;;;12.50;99.90;;;;;;5051206;28;20172;-53
2022/10/03 04:04:59;;;;;;;10.23;3.05;;;12.50;99.90;;;;;;5044807;28;20199;-47
2022/10/03 04:07:35;;;;;;;15.90;2.90;;;12.40;99.90;;;;;;5048419;28;20202;-50
2022/10/03 04:10:24;;;;;;;11.75;2.65;;;12.30;99.90;;;;;;5050811;28;20171;-53
2022/10/03 04:13:26;;;;;;;8.25;2.40;;;12.30;99.90;;;;;;5053559;28;20171;-52
2022/10/03 04:15:58;;;;;;;12.88;2.53;;;12.30;99.90;;;;;;5031042;28;20234;-62
2022/10/03 04:18:59;;;;;;;9.90;2.35;;;12.20;99.90;;;;;;5048461;28;20519;-52
2022/10/03 04:22:00;;;;;;;8.65;2.17;;;12.20;99.90;;;;;;5052874;28;20194;-48
2022/10/03 04:25:14;;;;;;;15.38;2.80;;;12.20;99.90;;;;;;5052978;28;20247;-51
2022/10/03 04:27:49;;;;;;;8.63;2.20;;;12.20;99.90;;;;;;4971230;28;20589;-51
2022/10/03 04:30:28;;;;;;;14.88;2.55;;;12.20;99.90;;;;;;4960950;28;20580;-51
2022/10/03 04:33:05;;;;;;;9.13;2.25;;;12.20;99.90;;;;;;5008078;28;20556;-50
2022/10/03 04:35:53;;;;;;;13.90;2.90;;;12.10;99.90;;;;;;5032577;28;20203;-52
2022/10/03 04:38:43;;;;;;;8.63;2.28;;;12.10;99.90;;;;;;5033912;28;20169;-54
2022/10/03 04:41:33;;;;;;;6.43;2.45;;;12.10;99.90;;;;;;5047075;28;20188;-60
2022/10/03 04:44:22;;;;;;;11.57;3.67;;;12.10;99.90;;;;;;5041444;28;21495;-60
2022/10/03 04:47:01;;;;;;;13.52;3.53;;;12.20;99.90;;;;;;5042777;28;20695;-53
2022/10/03 04:49:41;;;;;;;7.93;2.80;;;12.20;99.90;;;;;;5048963;28;20632;-52
2022/10/03 04:52:16;;;;;;;6.97;2.67;;;12.20;99.90;;;;;;5045613;28;20172;-53
2022/10/03 04:54:49;;;;;;;13.27;2.88;;;12.30;99.90;;;;;;5046746;28;20301;-53
2022/10/03 04:57:24;;;;;;;13.70;3.72;;;12.30;99.90;;;;;;5052459;28;20187;-52
2022/10/03 05:00:00;;;;;;;13.07;3.58;;;12.30;99.90;;;;;;5051530;28;20171;-52
2022/10/03 05:02:51;;;;;;;12.02;3.58;;;12.40;99.90;;;;;;5037430;28;20183;-53
2022/10/03 05:05:32;;;;;;;9.50;3.13;;;12.40;99.90;;;;;;5043360;28;20428;-50
2022/10/03 05:08:23;;;;;;;10.18;3.50;;;12.50;99.90;;;;;;5036310;28;20247;-51
2022/10/03 05:11:04;;;;;;;23.08;3.45;;;12.50;99.90;;;;;;5038990;28;20258;-51
2022/10/03 05:13:33;;;;;;;11.55;3.45;;;12.50;99.90;;;;;;5044214;28;20262;-55
2022/10/03 05:16:18;;;;;;;18.30;3.30;;;12.60;99.90;;;;;;5039110;28;20204;-51
2022/10/03 05:19:09;;;;;;;12.35;2.88;;;12.60;99.90;;;;;;5018175;28;20184;-53
2022/10/03 05:21:56;;;;;;;11.75;3.08;;;12.60;99.90;;;;;;5038515;28;20206;-52
2022/10/03 05:24:49;;;;;;;20.25;7.10;;;12.70;99.90;;;;;;5036069;28;20160;-53
2022/10/03 05:27:56;;;;;;;10.15;3.80;;;12.70;99.90;;;;;;5036190;28;20168;-53
2022/10/03 05:30:40;;;;;;;14.02;3.30;;;12.70;99.90;;;;;;5038768;28;20257;-47
2022/10/03 05:33:06;;;;;;;10.70;3.45;;;12.80;99.90;;;;;;5050088;28;20244;-46
2022/10/03 05:36:14;;;;;;;19.63;3.53;;;12.80;99.90;;;;;;5017948;28;20203;-49
2022/10/03 05:39:21;;;;;;;9.57;3.78;;;12.80;99.90;;;;;;5047069;28;20228;-47
2022/10/03 05:41:53;;;;;;;15.80;3.90;;;12.80;99.90;;;;;;5066460;28;20167;-53
2022/10/03 05:44:38;;;;;;;16.30;3.60;;;12.90;99.90;;;;;;5048325;28;20183;-51
2022/10/03 05:47:45;;;;;;;12.80;3.95;;;12.90;99.90;;;;;;5053242;28;20532;-50
2022/10/03 05:50:10;;;;;;;13.90;3.55;;;12.90;99.90;;;;;;5050138;28;20212;-52
2022/10/03 05:52:54;;;;;;;14.13;3.50;;;12.90;99.90;;;;;;5050352;28;20185;-52
2022/10/03 05:55:23;;;;;;;13.05;3.88;;;12.90;99.90;;;;;;5047766;28;20740;-56
2022/10/03 05:58:05;;;;;;;18.33;4.40;;;13.00;99.90;;;;;;5047589;28;20661;-50
2022/10/03 06:01:08;;;;;;;15.75;4.30;;;13.00;99.90;;;;;;5052225;28;20194;-49
2022/10/03 06:03:58;;;;;;;13.60;4.82;;;13.00;99.90;;;;;;5051603;28;20631;-54
2022/10/03 06:07:03;;;;;;;12.73;4.20;;;13.10;99.90;;;;;;5053553;28;20323;-54
2022/10/03 06:09:54;;;;;;;18.58;4.43;;;13.10;99.90;;;;;;5036226;28;20631;-61
2022/10/03 06:12:28;;;;;;;14.90;4.28;;;13.10;99.90;;;;;;5025783;28;20529;-53
2022/10/03 06:15:06;;;;;;;13.55;4.80;;;13.10;99.90;;;;;;5053358;28;20202;-53
2022/10/03 06:17:41;;;;;;;13.95;4.13;;;13.20;99.90;;;;;;5044795;28;20259;-49
2022/10/03 06:20:54;;;;;;;20.13;4.57;;;13.20;99.90;;;;;;5037214;28;20179;-49
2022/10/03 06:24:14;;;;;;;21.55;7.55;;;13.20;99.90;;;;;;5045259;28;20204;-52
2022/10/03 06:27:13;;;;;;;14.20;6.00;;;13.20;99.90;;;;;;4957834;28;20662;-52
2022/10/03 06:30:20;;;;;;;20.98;6.30;;;13.30;99.90;;;;;;5020445;28;20536;-62
2022/10/03 06:33:24;;;;;;;15.80;4.75;;;13.30;99.90;;;;;;5047322;28;20194;-54
2022/10/03 06:36:07;;;;;;;16.38;5.30;;;13.30;99.90;;;;;;5052321;28;20218;-51
2022/10/03 06:39:11;;;;;;;18.15;5.70;;;13.30;99.90;;;;;;5046745;28;20180;-54
2022/10/03 06:41:46;;;;;;;24.67;4.43;;;13.40;99.90;;;;;;5025712;28;20261;-52
2022/10/03 06:44:35;;;;;;;16.77;4.45;;;13.40;99.90;;;;;;5019994;28;20210;-53
2022/10/03 06:47:07;;;;;;;16.48;5.53;;;13.40;99.90;;;;;;5050777;28;20244;-52
2022/10/03 06:50:03;;;;;;;28.67;7.68;;;13.50;99.90;;;;;;5043533;28;20318;-55
2022/10/03 06:53:16;;;;;;;20.67;5.13;;;13.40;99.90;;;;;;5044098;28;20678;-51
2022/10/03 06:56:21;;;;;;;11.80;4.93;;;13.50;99.90;;;;;;5054145;28;20191;-52
2022/10/03 06:59:12;;;;;;;25.95;5.82;;;13.50;99.90;;;;;;5032221;28;20172;-55
2022/10/03 07:02:16;;;;;;;17.20;3.88;;;13.50;99.90;;;;;;5039516;28;20175;-53
2022/10/03 07:05:02;;;;;;;10.55;2.28;;;13.50;99.90;;;;;;5053625;28;20171;-50
2022/10/03 07:07:31;;;;;;;13.10;2.88;;;13.50;99.90;;;;;;5045046;28;20276;-51
2022/10/03 07:10:28;;;;;;;18.33;3.22;;;13.60;99.90;;;;;;5039324;28;20194;-66
2022/10/03 07:13:08;;;;;;;11.32;2.17;;;13.60;99.90;;;;;;5046285;28;20183;-54
2022/10/03 07:16:08;;;;;;;11.85;2.13;;;13.60;99.90;;;;;;5052344;28;20294;-54
2022/10/03 07:18:52;;;;;;;15.40;2.22;;;13.60;99.90;;;;;;5053249;28;20733;-53
2022/10/03 07:21:49;;;;;;;9.85;2.90;;;13.60;99.90;;;;;;5029285;28;20210;-56
2022/10/03 07:24:46;;;;;;;20.35;2.88;;;13.60;99.90;;;;;;5031921;28;20187;-55
2022/10/03 07:27:20;;;;;;;16.92;2.70;;;13.70;99.90;;;;;;5035086;28;20258;-53
2022/10/03 07:30:15;;;;;;;16.15;2.80;;;13.70;99.90;;;;;;5031458;28;20558;-54
2022/10/03 07:33:23;;;;;;;12.98;2.70;;;13.70;99.90;;;;;;5051124;28;20218;-54
2022/10/03 07:39:44;;;;;;;11.27;2.65;;;13.70;99.90;;;;;;5034830;28;20187;-52
2022/10/03 07:42:47;;;;;;;11.52;2.70;;;13.80;99.90;;;;;;5043020;28;20266;-55
2022/10/03 07:45:40;;;;;;;17.83;3.30;;;13.80;99.90;;;;;;5053036;28;20249;-53
2022/10/03 07:48:36;;;;;;;16.15;3.33;;;13.80;99.90;;;;;;5051662;28;20176;-55
2022/10/03 07:51:12;;;;;;;11.40;2.80;;;13.80;99.90;;;;;;5049779;28;20266;-52
2022/10/03 07:54:19;;;;;;;14.30;3.53;;;13.80;99.90;;;;;;5035576;28;20577;-53
2022/10/03 07:57:11;;;;;;;16.33;3.20;;;13.90;99.90;;;;;;5023528;28;20214;-53
2022/10/03 08:00:09;;;;;;;16.27;2.80;;;13.90;99.90;;;;;;5048954;28;20194;-55
2022/10/03 08:02:53;;;;;;;13.02;2.70;;;14.00;99.90;;;;;;5025088;28;20185;-53
2022/10/03 08:05:56;;;;;;;11.75;2.90;;;14.00;99.90;;;;;;5052911;28;20258;-59
2022/10/03 08:08:41;;;;;;;18.00;2.70;;;14.10;99.90;;;;;;5034207;28;20235;-54
2022/10/03 08:11:31;;;;;;;18.15;3.00;;;14.10;99.90;;;;;;5040077;28;20178;-63
2022/10/03 08:14:16;;;;;;;15.73;3.25;;;14.10;99.90;;;;;;5047462;28;20208;-52
2022/10/03 08:16:54;;;;;;;11.63;2.67;;;14.10;99.90;;;;;;5050652;28;20187;-54
2022/10/03 08:20:11;;;;;;;16.75;3.05;;;14.20;99.90;;;;;;5053069;28;20171;-51
2022/10/03 08:22:55;;;;;;;15.48;3.10;;;14.20;99.90;;;;;;4957217;28;20182;-54
2022/10/03 08:25:49;;;;;;;12.30;3.00;;;14.30;99.90;;;;;;5010128;28;20203;-53
2022/10/03 08:28:23;;;;;;;13.93;3.17;;;14.30;99.90;;;;;;5029307;28;20175;-55
2022/10/03 08:31:07;;;;;;;14.73;3.47;;;14.40;99.90;;;;;;5032065;28;20183;-50
2022/10/03 08:33:46;;;;;;;15.85;2.70;;;14.40;99.90;;;;;;5034491;28;20184;-52
2022/10/03 08:36:15;;;;;;;14.63;2.85;;;14.50;99.90;;;;;;5016086;28;20199;-55
2022/10/03 08:38:49;;;;;;;12.73;2.85;;;14.50;99.90;;;;;;5038291;28;20183;-55
2022/10/03 08:41:47;;;;;;;13.10;2.53;;;14.60;99.90;;;;;;5039534;28;21183;-51
2022/10/03 08:44:28;;;;;;;10.98;2.42;;;14.60;99.90;;;;;;5035555;28;20233;-54
2022/10/03 08:47:24;;;;;;;8.88;2.50;;;14.70;99.90;;;;;;5041270;28;20233;-52
2022/10/03 08:50:04;;;;;;;9.57;3.08;;;14.80;99.90;;;;;;5038086;28;20266;-53
2022/10/03 08:53:11;;;;;;;10.52;2.47;;;14.90;99.90;;;;;;5042436;28;20202;-52
2022/10/03 08:56:09;;;;;;;14.93;2.40;;;14.90;99.90;;;;;;5012161;28;20285;-50
2022/10/03 08:59:00;;;;;;;13.32;2.00;;;15.00;99.90;;;;;;5044067;28;20187;-66
2022/10/03 09:01:58;;;;;;;11.95;2.40;;;15.00;99.90;;;;;;5034060;28;20627;-53
2022/10/03 09:04:55;;;;;;;7.70;2.33;;;15.10;99.90;;;;;;4986908;28;20257;-49
2022/10/03 09:07:56;;;;;;;11.80;2.50;;;15.20;99.90;;;;;;5036834;28;20599;-52
2022/10/03 09:10:34;;;;;;;12.23;2.20;;;15.30;99.90;;;;;;5054972;28;20647;-50
2022/10/03 09:13:20;;;;;;;10.70;2.00;;;15.40;99.90;;;;;;5054581;28;20171;-49
2022/10/03 09:16:11;;;;;;;11.23;1.80;;;15.50;99.90;;;;;;5035940;28;20206;-50
2022/10/03 09:19:16;;;;;;;20.70;2.80;;;15.70;99.90;;;;;;5051606;28;20688;-62
2022/10/03 09:22:03;;;;;;;8.35;1.77;;;15.80;99.90;;;;;;5046216;28;20175;-53
2022/10/03 09:24:43;;;;;;;9.60;2.20;;;15.90;99.90;;;;;;5056101;28;20163;-51
2022/10/03 09:27:38;;;;;;;14.23;3.47;;;16.00;99.90;;;;;;5053700;28;20179;-55
2022/10/03 09:30:28;;;;;;;15.95;2.38;;;16.10;99.90;;;;;;4997329;28;20223;-59
2022/10/03 09:33:48;;;;;;;12.93;2.60;;;16.30;99.90;;;;;;5049014;28;20666;-52
2022/10/03 09:36:19;;;;;;;7.57;1.92;;;16.30;99.90;;;;;;5053749;28;20307;-54
2022/10/03 09:39:04;;;;;;;14.45;2.67;;;16.50;99.90;;;;;;5035534;28;20168;-52
2022/10/03 09:41:33;;;;;;;9.13;2.20;;;16.50;99.90;;;;;;5021966;28;20207;-55
2022/10/03 09:44:22;;;;;;;10.30;2.10;;;16.60;99.90;;;;;;5040429;28;20217;-55
2022/10/03 09:47:22;;;;;;;10.65;2.08;;;16.70;99.90;;;;;;5044403;28;20185;-54
2022/10/03 09:50:27;;;;;;;11.73;1.90;;;16.70;99.90;;;;;;5054196;28;20316;-56
2022/10/03 09:53:12;;;;;;;17.80;2.65;;;16.80;99.90;;;;;;5036888;28;20187;-60
2022/10/03 09:56:00;;;;;;;15.23;2.38;;;16.90;99.90;;;;;;5035644;28;20188;-55
2022/10/03 09:58:38;;;;;;;13.15;2.30;;;17.00;99.90;;;;;;5053892;28;20179;-53
2022/10/03 10:01:04;;;;;;;11.93;2.00;;;17.10;99.90;;;;;;5035450;28;20205;-62
2022/10/03 10:03:45;;;;;;;12.60;2.17;;;17.20;99.90;;;;;;5041570;28;20180;-58
2022/10/03 10:06:13;;;;;;;10.48;2.50;;;17.40;99.90;;;;;;5033043;28;20567;-59
2022/10/03 10:09:00;;;;;;;10.60;2.95;;;17.50;99.90;;;;;;5039406;28;20203;-51
2022/10/03 10:11:45;;;;;;;13.73;2.63;;;17.70;99.90;;;;;;5036808;28;20287;-52
2022/10/03 10:14:46;;;;;;;11.25;2.15;;;17.80;99.90;;;;;;5036849;28;20175;-53
2022/10/03 10:17:30;;;;;;;12.75;2.40;;;17.80;99.90;;;;;;5049095;28;20201;-53
2022/10/03 10:20:24;;;;;;;16.40;2.45;;;17.80;99.90;;;;;;5039361;28;20662;-48
2022/10/03 10:23:03;;;;;;;10.40;2.60;;;17.80;99.90;;;;;;5053702;28;20206;-48
2022/10/03 10:25:56;;;;;;;11.70;2.25;;;17.80;99.90;;;;;;5055123;28;20175;-53
2022/10/03 10:28:30;;;;;;;18.35;2.40;;;17.80;99.90;;;;;;5038617;28;20190;-64
2022/10/03 10:31:02;;;;;;;13.52;2.60;;;17.80;99.90;;;;;;5041708;28;20243;-53
2022/10/03 10:33:45;;;;;;;14.15;2.40;;;17.80;99.90;;;;;;5052933;28;20182;-54
2022/10/03 10:36:32;;;;;;;11.13;2.47;;;17.90;99.90;;;;;;5051666;28;20229;-58
2022/10/03 10:39:35;;;;;;;12.25;2.67;;;17.80;99.90;;;;;;5052157;28;20186;-53
2022/10/03 10:42:45;;;;;;;12.75;2.42;;;17.80;99.90;;;;;;5015313;28;20242;-51
2022/10/03 10:45:37;;;;;;;14.63;2.35;;;17.90;99.90;;;;;;5034750;28;20214;-53
2022/10/03 10:48:25;;;;;;;12.75;2.40;;;17.90;99.90;;;;;;5047286;28;20187;-52
2022/10/03 10:51:12;;;;;;;18.23;2.42;;;18.00;99.90;;;;;;5035106;28;20639;-63
2022/10/03 10:53:59;;;;;;;13.57;2.30;;;18.10;99.90;;;;;;5035901;28;20186;-55
2022/10/03 10:56:47;;;;;;;13.40;3.10;;;18.10;99.90;;;;;;5018571;28;20210;-54
2022/10/03 10:59:38;;;;;;;9.75;2.17;;;18.20;99.90;;;;;;5035570;28;20179;-55
2022/10/03 11:02:35;;;;;;;8.48;1.92;;;18.30;99.90;;;;;;5033662;28;20623;-54
2022/10/03 11:05:19;;;;;;;14.98;2.50;;;18.30;99.90;;;;;;5033361;28;20588;-55
2022/10/03 11:08:15;;;;;;;13.05;2.22;;;18.40;99.90;;;;;;5044951;28;20179;-57
2022/10/03 11:11:12;;;;;;;12.98;2.53;;;18.40;99.90;;;;;;5012916;28;21003;-55
2022/10/03 11:14:08;;;;;;;11.13;2.30;;;18.50;99.90;;;;;;5037390;28;20186;-55
2022/10/03 11:16:59;;;;;;;10.05;2.25;;;18.70;99.90;;;;;;5033713;28;20202;-56
2022/10/03 11:20:00;;;;;;;15.07;2.15;;;18.80;99.10;;;;;;5040828;28;20211;-57
2022/10/03 11:22:59;;;;;;;14.35;2.50;;;18.80;98.50;;;;;;5045085;28;20227;-56
2022/10/03 11:25:34;;;;;;;9.23;2.38;;;18.90;98.40;;;;;;5031395;28;20708;-56
2022/10/03 11:28:37;;;;;;;16.30;2.42;;;18.90;98.10;;;;;;5034886;28;20175;-55
2022/10/03 11:31:30;;;;;;;9.80;1.73;;;19.00;97.70;;;;;;5035027;28;20525;-69
2022/10/03 11:34:08;;;;;;;14.30;2.22;;;18.90;97.50;;;;;;5036134;28;20187;-54
2022/10/03 11:36:58;;;;;;;12.13;2.42;;;18.90;97.70;;;;;;4995940;28;20222;-56
2022/10/03 11:39:40;;;;;;;10.80;1.92;;;18.90;97.30;;;;;;5031988;28;20539;-53
2022/10/03 11:42:18;;;;;;;15.82;2.50;;;18.90;97.10;;;;;;5045958;28;20178;-55
2022/10/03 11:45:05;;;;;;;11.30;2.38;;;18.90;96.70;;;;;;5032887;28;20179;-54
2022/10/03 11:47:38;;;;;;;9.98;2.10;;;18.90;96.70;;;;;;5032781;28;20244;-66
2022/10/03 11:50:24;;;;;;;8.30;2.15;;;18.90;96.80;;;;;;5033831;28;20191;-56
2022/10/03 11:53:25;;;;;;;11.70;2.22;;;18.90;96.20;;;;;;5050557;28;20205;-52
2022/10/03 11:56:11;;;;;;;15.55;2.50;;;18.90;96.40;;;;;;5041746;28;20619;-68
2022/10/03 11:58:52;;;;;;;15.75;2.58;;;18.90;96.60;;;;;;5036559;28;20202;-50
2022/10/03 12:01:48;;;;;;;16.13;2.42;;;18.90;96.70;;;;;;5045260;28;20229;-55
2022/10/03 12:04:49;;;;;;;12.00;2.33;;;18.90;96.60;;;;;;5053306;28;20602;-54
2022/10/03 12:10:38;;;;;;;11.57;2.58;;;18.70;97.10;;;;;;5034931;28;20636;-54
2022/10/03 12:13:13;;;;;;;14.73;2.70;;;18.70;97.20;;;;;;5051952;28;20270;-53
2022/10/03 12:15:47;;;;;;;14.27;3.03;;;18.70;97.40;;;;;;5039351;28;20696;-56
2022/10/03 12:18:20;;;;;;;8.90;2.33;;;18.70;97.50;;;;;;5051209;28;20228;-54
2022/10/03 12:21:09;;;;;;;12.57;2.45;;;18.70;97.60;;;;;;5057050;28;20168;-55
2022/10/03 12:23:59;;;;;;;10.98;2.42;;;18.60;97.80;;;;;;5019826;28;20188;-55
2022/10/03 12:26:34;;;;;;;10.45;2.28;;;18.70;97.90;;;;;;5036691;28;20202;-56
2022/10/03 12:29:02;;;;;;;11.73;2.42;;;18.80;97.80;;;;;;5036702;28;20893;-59
2022/10/03 12:31:37;;;;;;;12.80;2.35;;;18.90;97.70;;;;;;5044679;28;20175;-53
2022/10/03 12:34:37;;;;;;;8.43;2.25;;;19.00;97.60;;;;;;5057010;28;20179;-55
2022/10/03 12:37:13;;;;;;;7.35;2.13;;;19.10;97.70;;;;;;5041552;28;20277;-59
2022/10/03 12:40:23;;;;;;;11.40;2.30;;;19.20;97.90;;;;;;5038309;28;20179;-55
2022/10/03 12:43:00;;;;;;;15.27;2.55;;;19.20;97.80;;;;;;4958171;28;20638;-56
2022/10/03 12:45:35;;;;;;;13.35;2.50;;;19.30;97.90;;;;;;5043640;28;20195;-55
2022/10/03 12:48:41;;;;;;;12.30;2.80;;;19.30;98.00;;;;;;5037666;28;20171;-58
2022/10/03 12:51:37;;;;;;;9.55;2.50;;;19.30;97.70;;;;;;5036079;28;20254;-61
2022/10/03 12:54:19;;;;;;;17.10;2.80;;;19.30;97.70;;;;;;5034504;28;20265;-62
2022/10/03 12:56:59;;;;;;;10.38;2.35;;;19.20;97.90;;;;;;5048332;28;20384;-62
2022/10/03 12:59:53;;;;;;;21.88;3.55;;;19.20;97.90;;;;;;5017486;28;20183;-50
2022/10/03 13:02:24;;;;;;;14.15;2.63;;;19.20;97.70;;;;;;5037574;28;20170;-56
2022/10/03 13:05:21;;;;;;;11.52;2.47;;;19.10;97.70;;;;;;5044275;28;20545;-60
2022/10/03 13:08:02;;;;;;;16.50;2.70;;;19.10;97.60;;;;;;5052965;28;20693;-56
2022/10/03 13:10:47;;;;;;;11.65;2.88;;;18.90;97.70;;;;;;5055728;28;20168;-54
2022/10/03 13:13:32;;;;;;;10.45;2.40;;;18.80;98.00;;;;;;5054779;28;20175;-55
2022/10/03 13:16:03;;;;;;;13.75;2.58;;;18.70;98.30;;;;;;5040544;28;20202;-52
2022/10/03 13:18:37;;;;;;;11.32;2.38;;;18.60;99.00;;;;;;5054666;28;20588;-54
2022/10/03 13:21:08;;;;;;;16.25;2.75;;;18.50;98.90;;;;;;5055183;28;20634;-57
2022/10/03 13:23:49;;;;;;;13.57;2.65;;;18.50;99.00;;;;;;5054378;28;20187;-54
2022/10/03 13:26:24;;;;;;;12.18;2.88;;;18.50;99.20;;;;;;5051446;28;20187;-56
2022/10/03 13:29:19;;;;;;;13.00;2.47;;;18.60;99.40;;;;;;5054682;28;20551;-56
2022/10/03 13:31:54;;;;;;;13.80;2.72;;;18.60;99.50;;;;;;5054703;28;20234;-51
2022/10/03 13:34:24;;;;;;;14.32;2.50;;;18.60;99.60;;;;;;5054430;28;20178;-55
2022/10/03 13:37:03;;;;;;;15.90;2.80;;;18.60;99.90;;;;;;5042175;28;20286;-54
2022/10/03 13:39:51;;;;;;;13.75;2.70;;;18.50;99.90;;;;;;5054240;28;20184;-55
2022/10/03 13:42:30;;;;;;;14.02;2.40;;;18.50;99.90;;;;;;5068618;28;20182;-55
2022/10/03 13:45:02;;;;;;;13.00;4.78;;;18.50;99.90;;;;;;5017974;28;20206;-56
2022/10/03 13:47:46;;;;;;;12.90;2.45;;;18.50;99.90;;;;;;5041650;28;20273;-52
2022/10/03 13:50:33;;;;;;;13.23;2.45;;;18.40;99.90;;;;;;5055540;28;20183;-56
2022/10/03 13:53:08;;;;;;;19.05;2.80;;;18.40;99.90;;;;;;5036663;28;20171;-54
2022/10/03 13:55:40;;;;;;;18.13;4.88;;;18.40;99.90;;;;;;5054242;28;20202;-56
2022/10/03 13:58:45;;;;;;;11.63;3.20;;;18.40;99.90;;;;;;5021999;28;20211;-51
2022/10/03 14:01:32;;;;;;;17.85;2.80;;;18.40;99.90;;;;;;5035234;28;20239;-56
2022/10/03 14:04:26;;;;;;;12.70;2.65;;;18.50;99.90;;;;;;5049174;28;20181;-57
2022/10/03 14:07:12;;;;;;;15.52;2.75;;;18.50;99.90;;;;;;5035569;28;20219;-56
2022/10/03 14:09:59;;;;;;;12.23;2.20;;;18.60;99.90;;;;;;5032570;28;20233;-56
2022/10/03 14:12:34;;;;;;;13.20;2.78;;;18.70;99.90;;;;;;5053942;28;20190;-55
2022/10/03 14:15:21;;;;;;;10.65;2.40;;;18.70;99.90;;;;;;5036910;28;20317;-57
2022/10/03 14:18:02;;;;;;;16.92;2.63;;;18.70;99.90;;;;;;5050473;28;20265;-56
2022/10/03 14:20:36;;;;;;;11.95;2.13;;;18.70;99.40;;;;;;5043333;28;20186;-55
2022/10/03 14:23:32;;;;;;;13.88;2.50;;;18.60;99.20;;;;;;5054046;28;20212;-51
2022/10/03 14:26:14;;;;;;;11.02;2.35;;;18.60;99.00;;;;;;5053353;28;20564;-55
2022/10/03 14:28:57;;;;;;;16.13;2.83;;;18.60;98.90;;;;;;5025613;28;20214;-54